createdAt,value
2018-11-20T00:00:51.941Z,17.27
2018-11-20T00:03:55.237Z,19.40
2018-11-20T00:06:42.142Z,18.13
2018-11-20T00:09:32.095Z,19.43
2018-11-20T00:12:17.051Z,18.30
2018-11-20T00:14:56.351Z,18.43
2018-11-20T00:18:02.725Z,18.60
2018-11-20T00:20:50.887Z,18.37
2018-11-20T00:24:03.447Z,21.93
2018-11-20T00:26:53.118Z,19.00
2018-11-20T00:29:42.994Z,20.07
2018-11-20T00:32:25.588Z,19.23
2018-11-20T00:35:23.885Z,22.70
2018-11-20T00:38:09.989Z,19.93
2018-11-20T00:40:45.626Z,23.70
2018-11-20T00:43:47.018Z,22.73
2018-11-20T00:46:34.040Z,21.30
2018-11-20T00:49:15.659Z,20.30
2018-11-20T00:52:05.780Z,19.60
2018-11-20T00:54:54.493Z,19.37
2018-11-20T00:57:32.606Z,20.43
2018-11-20T01:00:15.679Z,20.97
2018-11-20T01:03:06.796Z,20.33
2018-11-20T01:06:14.499Z,20.73
2018-11-20T01:09:15.484Z,23.13
2018-11-20T01:12:05.533Z,22.27
2018-11-20T01:14:55.705Z,21.30
2018-11-20T01:17:48.460Z,19.30
2018-11-20T01:20:51.029Z,23.23
2018-11-20T01:23:39.122Z,21.80
2018-11-20T01:26:22.523Z,23.77
2018-11-20T01:29:03.107Z,24.23
2018-11-20T01:31:50.775Z,24.53
2018-11-20T01:34:39.919Z,24.30
2018-11-20T01:37:16.332Z,21.40
2018-11-20T01:40:18.774Z,24.57
2018-11-20T01:43:08.341Z,25.53
2018-11-20T01:45:56.913Z,25.27
2018-11-20T01:48:52.924Z,24.43
2018-11-20T01:51:38.904Z,24.43
2018-11-20T01:54:29.334Z,24.93
2018-11-20T01:57:14.831Z,23.20
2018-11-20T02:00:01.003Z,23.90
2018-11-20T02:02:49.240Z,24.93
2018-11-20T02:05:35.375Z,24.13
2018-11-20T02:08:25.327Z,24.67
2018-11-20T02:11:15.877Z,20.60
2018-11-20T02:14:15.253Z,24.93
2018-11-20T02:17:12.777Z,22.50
2018-11-20T02:20:03.683Z,23.37
2018-11-20T02:22:51.058Z,22.60
2018-11-20T02:25:30.209Z,22.80
2018-11-20T02:28:20.333Z,21.40
2018-11-20T02:31:00.626Z,26.13
2018-11-20T02:34:00.121Z,24.67
2018-11-20T02:36:47.497Z,23.17
2018-11-20T02:39:34.923Z,25.10
2018-11-20T02:42:25.066Z,22.73
2018-11-20T02:45:30.692Z,20.73
2018-11-20T02:48:07.597Z,25.50
2018-11-20T02:50:58.289Z,21.93
2018-11-20T02:53:47.059Z,25.10
2018-11-20T02:56:52.768Z,25.73
2018-11-20T02:59:42.898Z,23.67
2018-11-20T03:02:33.116Z,22.70
2018-11-20T03:05:32.705Z,23.60
2018-11-20T03:08:17.421Z,23.10
2018-11-20T03:11:12.703Z,21.77
2018-11-20T03:14:06.349Z,21.77
2018-11-20T03:16:52.831Z,20.80
2018-11-20T03:19:42.721Z,23.00
2018-11-20T03:22:28.892Z,22.17
2018-11-20T03:25:07.341Z,24.20
2018-11-20T03:27:57.453Z,21.60
2018-11-20T03:31:16.579Z,21.87
2018-11-20T03:34:10.550Z,20.97
2018-11-20T03:36:57.362Z,26.63
2018-11-20T03:39:42.326Z,24.17
2018-11-20T03:42:16.499Z,24.23
2018-11-20T03:45:06.511Z,22.63
2018-11-20T03:47:52.860Z,24.33
2018-11-20T03:50:43.084Z,22.63
2018-11-20T03:53:29.513Z,23.43
2018-11-20T03:56:10.768Z,22.47
2018-11-20T03:59:05.667Z,25.97
2018-11-20T04:01:51.505Z,20.90
2018-11-20T04:04:26.861Z,23.93
2018-11-20T04:07:07.215Z,22.37
2018-11-20T04:09:54.610Z,21.70
2018-11-20T04:12:47.020Z,23.13
2018-11-20T04:15:39.274Z,25.10
2018-11-20T04:18:27.514Z,23.77
2018-11-20T04:21:13.377Z,25.40
2018-11-20T04:24:19.032Z,20.03
2018-11-20T04:27:05.125Z,26.03
2018-11-20T04:29:41.170Z,20.23
2018-11-20T04:32:24.002Z,22.37
2018-11-20T04:35:13.530Z,23.23
2018-11-20T04:38:06.529Z,23.57
2018-11-20T04:40:52.631Z,25.30
2018-11-20T04:43:58.322Z,25.70
2018-11-20T04:47:06.931Z,23.37
2018-11-20T04:49:51.430Z,22.00
2018-11-20T04:52:53.939Z,23.77
2018-11-20T04:55:46.291Z,22.13
2018-11-20T04:58:39.011Z,22.37
2018-11-20T05:01:25.122Z,25.27
2018-11-20T05:04:12.489Z,22.13
2018-11-20T05:06:58.344Z,24.80
2018-11-20T05:09:44.157Z,20.53
2018-11-20T05:12:34.252Z,24.73
2018-11-20T05:15:20.488Z,25.53
2018-11-20T05:18:17.701Z,25.17
2018-11-20T05:21:03.689Z,24.10
2018-11-20T05:23:49.542Z,19.67
2018-11-20T05:26:33.644Z,29.50
2018-11-20T05:29:14.741Z,25.97
2018-11-20T05:31:59.585Z,23.87
2018-11-20T05:35:04.973Z,22.03
2018-11-20T05:37:45.041Z,22.37
2018-11-20T05:40:28.251Z,21.87
2018-11-20T05:43:24.730Z,22.17
2018-11-20T05:46:03.849Z,21.53
2018-11-20T05:48:49.728Z,22.77
2018-11-20T05:51:37.088Z,22.73
2018-11-20T05:54:17.531Z,23.50
2018-11-20T05:57:03.323Z,24.40
2018-11-20T05:59:49.504Z,23.57
2018-11-20T06:02:31.801Z,23.30
2018-11-20T06:05:20.927Z,24.20
2018-11-20T06:08:08.262Z,26.10
2018-11-20T06:11:05.160Z,22.60
2018-11-20T06:14:08.784Z,22.40
2018-11-20T06:16:59.786Z,23.43
2018-11-20T06:19:47.796Z,28.20
2018-11-20T06:22:34.071Z,24.80
2018-11-20T06:25:19.983Z,23.63
2018-11-20T06:28:06.806Z,21.30
2018-11-20T06:30:59.998Z,24.53
2018-11-20T06:33:37.366Z,22.17
2018-11-20T06:36:27.724Z,25.63
2018-11-20T06:39:07.617Z,23.00
2018-11-20T06:41:54.639Z,22.90
2018-11-20T06:44:41.111Z,25.37
2018-11-20T06:47:38.784Z,26.47
2018-11-20T06:50:35.513Z,24.43
2018-11-20T06:53:32.935Z,26.63
2018-11-20T06:56:25.581Z,24.07
2018-11-20T06:59:13.473Z,27.37
2018-11-20T07:02:11.427Z,26.37
2018-11-20T07:04:58.025Z,27.93
2018-11-20T07:07:51.930Z,25.10
2018-11-20T07:10:37.812Z,23.20
2018-11-20T07:13:50.171Z,23.13
2018-11-20T07:16:47.600Z,26.63
2018-11-20T07:19:44.814Z,25.17
2018-11-20T07:22:41.701Z,24.03
2018-11-20T07:25:27.704Z,29.30
2018-11-20T07:28:13.780Z,25.80
2018-11-20T07:31:00.063Z,27.43
2018-11-20T07:33:46.455Z,32.20
2018-11-20T07:36:36.658Z,23.87
2018-11-20T07:39:16.992Z,27.67
2018-11-20T07:41:54.709Z,28.17
2018-11-20T07:44:45.365Z,26.90
2018-11-20T07:47:47.696Z,24.83
2018-11-20T07:50:33.974Z,25.80
2018-11-20T07:53:23.456Z,24.43
2018-11-20T07:56:09.789Z,26.83
2018-11-20T07:58:57.123Z,29.73
2018-11-20T08:01:44.509Z,24.93
2018-11-20T08:04:33.614Z,25.00
2018-11-20T08:07:19.665Z,23.70
2018-11-20T08:10:05.968Z,26.47
2018-11-20T08:12:52.025Z,25.13
2018-11-20T08:15:31.473Z,25.93
2018-11-20T08:18:24.522Z,28.60
2018-11-20T08:21:00.387Z,26.03
2018-11-20T08:23:47.986Z,26.63
2018-11-20T08:26:35.686Z,23.03
2018-11-20T08:29:30.287Z,26.87
2018-11-20T08:32:08.677Z,32.33
2018-11-20T08:35:11.013Z,27.37
2018-11-20T08:38:13.462Z,25.77
2018-11-20T08:41:00.554Z,30.80
2018-11-20T08:43:45.767Z,23.07
2018-11-20T08:46:45.340Z,27.50
2018-11-20T08:49:31.407Z,25.83
2018-11-20T08:52:18.701Z,25.57
2018-11-20T08:55:03.869Z,25.17
2018-11-20T08:57:45.360Z,25.53
2018-11-20T09:00:47.991Z,28.03
2018-11-20T09:03:40.175Z,25.13
2018-11-20T09:06:26.464Z,26.33
2018-11-20T09:09:12.634Z,27.10
2018-11-20T09:12:05.082Z,26.23
2018-11-20T09:14:51.209Z,26.80
2018-11-20T09:17:37.140Z,22.20
2018-11-20T09:20:27.008Z,25.13
2018-11-20T09:23:03.153Z,23.90
2018-11-20T09:25:53.252Z,30.13
2018-11-20T09:28:33.950Z,26.93
2018-11-20T09:31:20.164Z,23.97
2018-11-20T09:34:13.183Z,25.03
2018-11-20T09:37:15.550Z,29.17
2018-11-20T09:40:23.161Z,25.30
2018-11-20T09:43:12.338Z,25.90
2018-11-20T09:46:12.667Z,25.00
2018-11-20T09:49:15.247Z,26.93
2018-11-20T09:52:14.777Z,27.80
2018-11-20T09:55:01.092Z,24.93
2018-11-20T09:57:42.661Z,27.00
2018-11-20T10:00:28.668Z,27.90
2018-11-20T10:03:09.504Z,26.70
2018-11-20T10:05:59.981Z,26.17
2018-11-20T10:08:51.488Z,26.10
2018-11-20T10:11:37.566Z,25.63
2018-11-20T10:14:40.419Z,24.80
2018-11-20T10:17:42.578Z,25.77
2018-11-20T10:20:28.628Z,27.00
2018-11-20T10:23:18.538Z,25.60
2018-11-20T10:26:11.847Z,26.23
2018-11-20T10:29:07.712Z,25.23
2018-11-20T10:32:14.709Z,23.63
2018-11-20T10:35:02.446Z,23.93
2018-11-20T10:37:45.437Z,24.57
2018-11-20T10:40:23.800Z,26.03
2018-11-20T10:43:11.114Z,27.13
2018-11-20T10:45:49.876Z,26.23
2018-11-20T10:48:35.895Z,26.93
2018-11-20T10:51:18.596Z,24.63
2018-11-20T10:54:04.700Z,24.93
2018-11-20T10:57:01.207Z,27.33
2018-11-20T10:59:54.551Z,25.97
2018-11-20T11:02:42.162Z,24.60
2018-11-20T11:05:34.659Z,24.17
2018-11-20T11:08:20.931Z,23.83
2018-11-20T11:11:07.254Z,25.47
2018-11-20T11:14:09.531Z,25.73
2018-11-20T11:16:47.704Z,24.23
2018-11-20T11:19:34.030Z,29.07
2018-11-20T11:22:12.409Z,26.17
2018-11-20T11:24:58.283Z,27.83
2018-11-20T11:27:51.972Z,23.70
2018-11-20T11:30:42.631Z,27.70
2018-11-20T11:33:36.222Z,30.10
2018-11-20T11:36:35.855Z,29.90
2018-11-20T11:39:26.278Z,26.23
2018-11-20T11:42:12.335Z,24.40
2018-11-20T11:45:02.263Z,27.80
2018-11-20T11:47:48.467Z,24.40
2018-11-20T11:50:34.295Z,23.97
2018-11-20T11:53:21.930Z,24.70
2018-11-20T11:56:08.307Z,25.80
2018-11-20T11:59:04.465Z,26.87
2018-11-20T12:04:46.432Z,25.37
2018-11-20T12:13:50.131Z,25.53
2018-11-20T12:16:50.380Z,27.00
2018-11-20T12:19:43.890Z,27.77
2018-11-20T12:22:50.511Z,26.43
2018-11-20T12:25:38.548Z,23.90
2018-11-20T12:28:17.390Z,26.57
2018-11-20T12:31:11.790Z,23.30
2018-11-20T12:33:52.506Z,27.73
2018-11-20T12:36:40.124Z,27.93
2018-11-20T12:39:25.391Z,33.83
2018-11-20T12:42:11.532Z,25.13
2018-11-20T12:44:54.391Z,28.13
2018-11-20T12:47:43.309Z,24.27
2018-11-20T12:50:21.949Z,27.33
2018-11-20T12:53:02.513Z,27.10
2018-11-20T12:56:07.034Z,25.87
2018-11-20T12:59:00.429Z,23.73
2018-11-20T13:01:48.046Z,26.30
2018-11-20T13:04:53.761Z,25.13
2018-11-20T13:07:57.711Z,26.87
2018-11-20T13:10:45.159Z,28.43
2018-11-20T13:13:36.663Z,23.47
2018-11-20T13:16:34.736Z,24.83
2018-11-20T13:19:20.728Z,20.13
2018-11-20T13:22:18.745Z,24.27
2018-11-20T13:25:09.753Z,21.30
2018-11-20T13:27:58.108Z,16.03
2018-11-20T13:30:54.333Z,18.20
2018-11-20T13:33:40.426Z,17.70
2018-11-20T13:36:46.229Z,14.20
2018-11-20T13:39:52.059Z,15.63
2018-11-20T13:42:40.773Z,14.30
2018-11-20T13:45:18.688Z,14.87
2018-11-20T13:48:08.520Z,14.37
2018-11-20T13:51:05.094Z,13.87
2018-11-20T13:54:07.357Z,12.67
2018-11-20T13:56:53.603Z,14.47
2018-11-20T13:59:39.608Z,16.97
2018-11-20T14:02:28.746Z,15.73
2018-11-20T14:05:14.779Z,14.73
2018-11-20T14:08:07.870Z,15.33
2018-11-20T14:11:10.659Z,12.93
2018-11-20T14:13:52.645Z,15.33
2018-11-20T14:16:38.611Z,15.13
2018-11-20T14:19:30.337Z,14.53
2018-11-20T14:22:14.738Z,13.60
2018-11-20T14:25:01.825Z,17.30
2018-11-20T14:27:49.184Z,15.17
2018-11-20T14:30:34.201Z,14.97
2018-11-20T14:33:20.420Z,19.90
2018-11-20T14:36:07.266Z,18.77
2018-11-20T14:38:56.498Z,29.33
2018-11-20T14:41:47.490Z,21.57
2018-11-20T14:44:25.005Z,37.30
2018-11-20T14:47:10.270Z,40.43
2018-11-20T14:49:57.578Z,83.43
2018-11-20T14:52:46.611Z,50.40
2018-11-20T14:55:55.225Z,18.13
2018-11-20T14:58:22.493Z,19.03
2018-11-20T15:01:10.555Z,15.90
2018-11-20T15:04:09.390Z,17.40
2018-11-20T15:06:55.420Z,17.53
2018-11-20T15:09:44.782Z,15.23
2018-11-20T15:12:30.541Z,18.10
2018-11-20T15:15:20.943Z,16.70
2018-11-20T15:18:14.301Z,17.40
2018-11-20T15:21:04.442Z,19.57
2018-11-20T15:23:56.669Z,16.43
2018-11-20T15:26:53.138Z,17.00
2018-11-20T15:29:53.852Z,19.00
2018-11-20T15:32:39.256Z,21.10
2018-11-20T15:35:25.615Z,19.50
2018-11-20T15:38:11.784Z,20.07
2018-11-20T15:40:58.168Z,18.07
2018-11-20T15:43:40.788Z,21.47
2018-11-20T15:46:21.593Z,19.63
2018-11-20T15:49:10.200Z,20.40
2018-11-20T15:52:08.593Z,21.30
2018-11-20T15:54:55.087Z,20.60
2018-11-20T15:57:54.669Z,20.40
2018-11-20T16:00:55.563Z,23.17
2018-11-20T16:03:40.262Z,24.23
2018-11-20T16:06:36.789Z,20.80
2018-11-20T16:09:27.337Z,20.67
2018-11-20T16:12:16.241Z,22.90
2018-11-20T16:15:04.528Z,20.70
2018-11-20T16:17:49.607Z,22.20
2018-11-20T16:20:23.443Z,20.97
2018-11-20T16:23:15.492Z,22.23
2018-11-20T16:26:01.635Z,22.70
2018-11-20T16:28:49.027Z,22.30
2018-11-20T16:31:48.579Z,25.60
2018-11-20T16:34:38.546Z,24.03
2018-11-20T16:37:31.943Z,24.03
2018-11-20T16:40:37.327Z,26.23
2018-11-20T16:43:27.263Z,25.63
2018-11-20T16:46:21.420Z,24.87
2018-11-20T16:49:24.435Z,23.93
2018-11-20T16:52:13.132Z,22.27
2018-11-20T16:55:00.527Z,25.53
2018-11-20T16:57:53.726Z,26.70
2018-11-20T17:00:58.774Z,24.13
2018-11-20T17:04:04.315Z,25.67
2018-11-20T17:06:41.322Z,26.77
2018-11-20T17:09:37.613Z,28.90
2018-11-20T17:12:13.626Z,30.67
2018-11-20T17:15:16.239Z,29.13
2018-11-20T17:18:18.759Z,27.03
2018-11-20T17:21:04.749Z,30.70
2018-11-20T17:23:57.939Z,27.50
2018-11-20T17:26:43.967Z,30.07
2018-11-20T17:29:40.250Z,25.83
2018-11-20T17:32:26.297Z,27.63
2018-11-20T17:35:12.916Z,26.67
2018-11-20T17:37:59.078Z,25.57
2018-11-20T17:40:44.841Z,23.87
2018-11-20T17:43:35.639Z,28.97
2018-11-20T17:46:23.056Z,29.20
2018-11-20T17:49:11.513Z,25.53
2018-11-20T17:51:57.292Z,26.27
2018-11-20T17:54:36.067Z,27.00
2018-11-20T17:57:22.229Z,28.17
2018-11-20T17:59:56.411Z,28.83
2018-11-20T18:02:46.822Z,28.20
2018-11-20T18:05:42.287Z,28.47
2018-11-20T18:08:29.710Z,26.97
2018-11-20T18:11:22.962Z,30.93
2018-11-20T18:14:28.570Z,29.83
2018-11-20T18:17:21.715Z,30.23
2018-11-20T18:20:26.711Z,26.73
2018-11-20T18:23:19.876Z,30.73
2018-11-20T18:26:05.421Z,32.40
2018-11-20T18:28:51.587Z,30.53
2018-11-20T18:31:37.658Z,33.10
2018-11-20T18:34:24.046Z,29.83
2018-11-20T18:37:09.090Z,27.23
2018-11-20T18:40:11.670Z,28.60
2018-11-20T18:42:49.078Z,28.37
2018-11-20T18:45:38.264Z,28.63
2018-11-20T18:48:40.685Z,28.90
2018-11-20T18:51:31.006Z,31.37
2018-11-20T18:54:17.028Z,31.73
2018-11-20T18:56:58.761Z,30.27
2018-11-20T18:59:46.154Z,29.60
2018-11-20T19:02:27.816Z,29.63
2018-11-20T19:05:04.942Z,28.13
2018-11-20T19:07:52.395Z,31.43
2018-11-20T19:10:38.279Z,29.87
2018-11-20T19:13:24.684Z,30.10
2018-11-20T19:16:05.402Z,28.63
2018-11-20T19:18:52.773Z,38.00
2018-11-20T19:21:40.137Z,33.97
2018-11-20T19:24:26.272Z,31.10
2018-11-20T19:27:22.353Z,27.37
2018-11-20T19:30:18.536Z,31.53
2018-11-20T19:33:16.048Z,36.20
2018-11-20T19:36:06.223Z,33.30
2018-11-20T19:38:53.295Z,35.73
2018-11-20T19:41:38.259Z,36.93
2018-11-20T19:44:24.531Z,32.60
2018-11-20T19:47:17.782Z,32.60
2018-11-20T19:50:08.025Z,37.83
2018-11-20T19:53:10.611Z,45.37
2018-11-20T19:56:20.789Z,33.53
2018-11-20T19:59:06.339Z,37.13
2018-11-20T20:02:02.566Z,35.90
2018-11-20T20:04:52.495Z,36.00
2018-11-20T20:07:42.890Z,33.03
2018-11-20T20:10:36.324Z,35.97
2018-11-20T20:13:30.512Z,34.23
2018-11-20T20:16:17.924Z,36.13
2018-11-20T20:19:12.210Z,34.37
2018-11-20T20:22:09.768Z,35.00
2018-11-20T20:25:15.458Z,37.77
2018-11-20T20:28:01.562Z,33.17
2018-11-20T20:30:51.124Z,31.33
2018-11-20T20:33:37.151Z,32.90
2018-11-20T20:36:30.653Z,31.07
2018-11-20T20:39:27.003Z,34.90
2018-11-20T20:42:32.522Z,38.93
2018-11-20T20:45:19.882Z,34.20
2018-11-20T20:48:03.459Z,36.43
2018-11-20T20:50:49.536Z,34.97
2018-11-20T20:53:38.502Z,34.53
2018-11-20T20:56:23.825Z,34.63
2018-11-20T20:59:10.710Z,35.77
2018-11-20T21:01:58.111Z,32.60
2018-11-20T21:04:44.541Z,32.63
2018-11-20T21:07:39.804Z,27.97
2018-11-20T21:10:20.138Z,36.17
2018-11-20T21:13:17.763Z,34.47
2018-11-20T21:16:03.836Z,33.83
2018-11-20T21:18:53.975Z,30.90
2018-11-20T21:21:46.794Z,29.73
2018-11-20T21:24:40.525Z,31.03
2018-11-20T21:27:26.673Z,29.63
2018-11-20T21:30:17.014Z,29.07
2018-11-20T21:33:03.085Z,28.73
2018-11-20T21:35:49.300Z,28.73
2018-11-20T21:38:46.023Z,28.77
2018-11-20T21:41:45.344Z,29.30
2018-11-20T21:44:34.957Z,32.10
2018-11-20T21:47:20.859Z,32.03
2018-11-20T21:50:11.102Z,31.37
2018-11-20T21:52:57.454Z,30.40
2018-11-20T21:55:43.239Z,33.87
2018-11-20T21:58:29.624Z,31.50
2018-11-20T22:01:18.827Z,31.13
2018-11-20T22:04:12.069Z,33.43
2018-11-20T22:07:11.604Z,40.37
2018-11-20T22:10:04.850Z,36.93
2018-11-20T22:13:01.627Z,37.97
2018-11-20T22:15:47.713Z,33.80
2018-11-20T22:18:34.188Z,32.77
2018-11-20T22:21:27.370Z,32.03
2018-11-20T22:24:20.778Z,28.13
2018-11-20T22:27:11.195Z,33.40
2018-11-20T22:30:16.856Z,32.93
2018-11-20T22:33:10.447Z,33.77
2018-11-20T22:36:06.787Z,31.00
2018-11-20T22:39:09.338Z,31.60
2018-11-20T22:41:59.885Z,33.70
2018-11-20T22:44:47.296Z,35.53
2018-11-20T22:47:34.453Z,32.13
2018-11-20T22:50:19.499Z,32.33
2018-11-20T22:53:16.272Z,26.70
2018-11-20T22:56:02.085Z,29.90
2018-11-20T22:58:37.287Z,27.93
2018-11-20T23:01:11.755Z,28.70
2018-11-20T23:04:00.988Z,30.30
2018-11-20T23:06:50.008Z,26.47
2018-11-20T23:09:18.255Z,29.23
2018-11-20T23:11:46.423Z,30.13
2018-11-20T23:14:14.575Z,29.77
2018-11-20T23:16:42.736Z,27.07
2018-11-20T23:19:10.897Z,28.17
2018-11-20T23:21:39.082Z,27.63
2018-11-20T23:24:07.248Z,26.03
2018-11-20T23:26:35.782Z,25.30
2018-11-20T23:29:03.586Z,27.57
2018-11-20T23:31:31.763Z,25.73
2018-11-20T23:33:59.939Z,28.07
2018-11-20T23:36:28.173Z,27.10
2018-11-20T23:38:56.410Z,24.87
2018-11-20T23:41:24.632Z,25.97
2018-11-20T23:43:52.850Z,28.67
2018-11-20T23:46:21.156Z,26.30
2018-11-20T23:48:52.389Z,27.37
2018-11-20T23:51:20.604Z,26.00
2018-11-20T23:53:48.872Z,22.63
2018-11-20T23:56:17.350Z,26.40
2018-11-20T23:58:45.557Z,26.30
